sensor_id;sensor_type;location;lat;lon;timestamp;temperature;humidity
9699;DHT22;10089;47.876;8.346;2024-03-08T00:01:12;1.90;99.90
9699;DHT22;10089;47.876;8.346;2024-03-08T00:03:38;1.90;99.90
9699;DHT22;10089;47.876;8.346;2024-03-08T00:06:05;1.90;99.90
9699;DHT22;10089;47.876;8.346;2024-03-08T00:08:31;1.90;99.90
9699;DHT22;10089;47.876;8.346;2024-03-08T00:10:57;1.80;99.90
9699;DHT22;10089;47.876;8.346;2024-03-08T00:13:22;1.80;99.90
9699;DHT22;10089;47.876;8.346;2024-03-08T00:15:49;1.70;99.90
9699;DHT22;10089;47.876;8.346;2024-03-08T00:18:16;1.70;99.90
9699;DHT22;10089;47.876;8.346;2024-03-08T00:20:42;1.70;99.90
9699;DHT22;10089;47.876;8.346;2024-03-08T00:23:07;1.70;99.90
9699;DHT22;10089;47.876;8.346;2024-03-08T00:25:33;1.80;99.90
9699;DHT22;10089;47.876;8.346;2024-03-08T00:27:59;1.70;99.90
9699;DHT22;10089;47.876;8.346;2024-03-08T00:30:25;1.70;99.90
9699;DHT22;10089;47.876;8.346;2024-03-08T00:32:51;1.70;99.90
9699;DHT22;10089;47.876;8.346;2024-03-08T00:35:16;1.70;99.90
9699;DHT22;10089;47.876;8.346;2024-03-08T00:37:43;1.60;99.90
9699;DHT22;10089;47.876;8.346;2024-03-08T00:40:12;1.60;99.90
9699;DHT22;10089;47.876;8.346;2024-03-08T00:42:38;1.70;99.90
9699;DHT22;10089;47.876;8.346;2024-03-08T00:45:05;1.70;99.90
9699;DHT22;10089;47.876;8.346;2024-03-08T00:47:31;1.80;99.90
9699;DHT22;10089;47.876;8.346;2024-03-08T00:49:56;1.60;99.90
9699;DHT22;10089;47.876;8.346;2024-03-08T00:52:23;1.60;99.90
9699;DHT22;10089;47.876;8.346;2024-03-08T00:54:49;1.70;99.90
9699;DHT22;10089;47.876;8.346;2024-03-08T00:57:15;1.70;99.90
9699;DHT22;10089;47.876;8.346;2024-03-08T00:59:40;1.80;99.90
9699;DHT22;10089;47.876;8.346;2024-03-08T01:02:06;1.70;99.90
9699;DHT22;10089;47.876;8.346;2024-03-08T01:04:32;1.70;99.90
9699;DHT22;10089;47.876;8.346;2024-03-08T01:06:59;1.70;99.90
9699;DHT22;10089;47.876;8.346;2024-03-08T01:09:25;1.60;99.90
9699;DHT22;10089;47.876;8.346;2024-03-08T01:11:53;1.60;99.90
9699;DHT22;10089;47.876;8.346;2024-03-08T01:14:20;1.40;99.90
9699;DHT22;10089;47.876;8.346;2024-03-08T01:16:48;1.40;99.90
9699;DHT22;10089;47.876;8.346;2024-03-08T01:19:14;1.50;99.90
9699;DHT22;10089;47.876;8.346;2024-03-08T01:21:39;1.60;99.90
9699;DHT22;10089;47.876;8.346;2024-03-08T01:24:05;1.40;99.90
9699;DHT22;10089;47.876;8.346;2024-03-08T01:26:31;1.40;99.90
9699;DHT22;10089;47.876;8.346;2024-03-08T01:28:56;1.50;99.90
9699;DHT22;10089;47.876;8.346;2024-03-08T01:31:22;1.60;99.90
9699;DHT22;10089;47.876;8.346;2024-03-08T01:33:47;1.60;99.90
9699;DHT22;10089;47.876;8.346;2024-03-08T01:36:15;1.60;99.90
9699;DHT22;10089;47.876;8.346;2024-03-08T01:38:42;1.70;99.90
9699;DHT22;10089;47.876;8.346;2024-03-08T01:41:07;1.60;99.90
9699;DHT22;10089;47.876;8.346;2024-03-08T01:43:34;1.60;99.90
9699;DHT22;10089;47.876;8.346;2024-03-08T01:46:00;1.60;99.90
9699;DHT22;10089;47.876;8.346;2024-03-08T01:48:28;1.60;99.90
9699;DHT22;10089;47.876;8.346;2024-03-08T01:50:55;1.60;99.90
9699;DHT22;10089;47.876;8.346;2024-03-08T01:53:21;1.60;99.90
9699;DHT22;10089;47.876;8.346;2024-03-08T01:55:48;1.30;99.90
9699;DHT22;10089;47.876;8.346;2024-03-08T01:58:15;1.40;99.90
9699;DHT22;10089;47.876;8.346;2024-03-08T02:00:43;1.40;99.90
9699;DHT22;10089;47.876;8.346;2024-03-08T02:03:09;1.40;99.90
9699;DHT22;10089;47.876;8.346;2024-03-08T02:05:36;1.30;99.90
9699;DHT22;10089;47.876;8.346;2024-03-08T02:08:02;1.30;99.90
9699;DHT22;10089;47.876;8.346;2024-03-08T02:10:28;1.30;99.90
9699;DHT22;10089;47.876;8.346;2024-03-08T02:12:55;1.40;99.90
9699;DHT22;10089;47.876;8.346;2024-03-08T02:15:20;1.50;99.90
9699;DHT22;10089;47.876;8.346;2024-03-08T02:17:47;1.50;99.90
9699;DHT22;10089;47.876;8.346;2024-03-08T02:20:12;1.50;99.90
9699;DHT22;10089;47.876;8.346;2024-03-08T02:22:38;1.40;99.90
9699;DHT22;10089;47.876;8.346;2024-03-08T02:25:04;1.50;99.90
9699;DHT22;10089;47.876;8.346;2024-03-08T02:27:31;1.40;99.90
9699;DHT22;10089;47.876;8.346;2024-03-08T02:29:57;1.20;99.90
9699;DHT22;10089;47.876;8.346;2024-03-08T02:32:26;1.30;99.90
9699;DHT22;10089;47.876;8.346;2024-03-08T02:34:56;1.40;99.90
9699;DHT22;10089;47.876;8.346;2024-03-08T02:37:22;1.20;99.90
9699;DHT22;10089;47.876;8.346;2024-03-08T02:39:47;1.30;99.90
9699;DHT22;10089;47.876;8.346;2024-03-08T02:42:13;1.30;99.90
9699;DHT22;10089;47.876;8.346;2024-03-08T02:44:43;1.30;99.90
9699;DHT22;10089;47.876;8.346;2024-03-08T02:47:09;1.40;99.90
9699;DHT22;10089;47.876;8.346;2024-03-08T02:49:35;1.30;99.90
9699;DHT22;10089;47.876;8.346;2024-03-08T02:52:02;1.30;99.90
9699;DHT22;10089;47.876;8.346;2024-03-08T02:54:28;1.20;99.90
9699;DHT22;10089;47.876;8.346;2024-03-08T03:21:34;1.20;99.90
9699;DHT22;10089;47.876;8.346;2024-03-08T03:24:01;1.10;99.90
9699;DHT22;10089;47.876;8.346;2024-03-08T03:26:27;1.20;99.90
9699;DHT22;10089;47.876;8.346;2024-03-08T03:40:27;1.10;99.90
9699;DHT22;10089;47.876;8.346;2024-03-08T04:13:09;0.80;99.90
9699;DHT22;10089;47.876;8.346;2024-03-08T04:23:57;0.70;99.90
9699;DHT22;10089;47.876;8.346;2024-03-08T04:42:04;0.70;99.90
9699;DHT22;10089;47.876;8.346;2024-03-08T04:44:32;0.90;99.90
9699;DHT22;10089;47.876;8.346;2024-03-08T04:46:59;2.40;99.90
9699;DHT22;10089;47.876;8.346;2024-03-08T04:49:26;0.90;99.90
9699;DHT22;10089;47.876;8.346;2024-03-08T04:51:53;-0.10;99.90
9699;DHT22;10089;47.876;8.346;2024-03-08T04:54:19;0.80;99.90
9699;DHT22;10089;47.876;8.346;2024-03-08T04:56:45;0.40;99.90
9699;DHT22;10089;47.876;8.346;2024-03-08T04:59:10;2.00;99.90
9699;DHT22;10089;47.876;8.346;2024-03-08T05:01:36;2.30;99.90
9699;DHT22;10089;47.876;8.346;2024-03-08T05:04:04;1.00;99.90
9699;DHT22;10089;47.876;8.346;2024-03-08T05:13:24;0.20;99.90
9699;DHT22;10089;47.876;8.346;2024-03-08T05:15:50;0.30;99.90
9699;DHT22;10089;47.876;8.346;2024-03-08T05:18:16;0.40;99.90
9699;DHT22;10089;47.876;8.346;2024-03-08T05:20:41;0.40;99.90
9699;DHT22;10089;47.876;8.346;2024-03-08T05:23:07;0.50;99.90
9699;DHT22;10089;47.876;8.346;2024-03-08T05:25:33;0.50;99.90
9699;DHT22;10089;47.876;8.346;2024-03-08T05:27:59;0.60;99.90
9699;DHT22;10089;47.876;8.346;2024-03-08T05:30:24;0.60;99.90
9699;DHT22;10089;47.876;8.346;2024-03-08T05:32:50;0.70;99.90
9699;DHT22;10089;47.876;8.346;2024-03-08T05:35:16;0.70;99.90
9699;DHT22;10089;47.876;8.346;2024-03-08T05:37:42;0.70;99.90
9699;DHT22;10089;47.876;8.346;2024-03-08T05:40:10;0.60;99.90
9699;DHT22;10089;47.876;8.346;2024-03-08T05:42:36;0.60;99.90
9699;DHT22;10089;47.876;8.346;2024-03-08T05:45:02;0.70;99.90
9699;DHT22;10089;47.876;8.346;2024-03-08T05:47:28;0.70;99.90
9699;DHT22;10089;47.876;8.346;2024-03-08T05:49:54;0.70;99.90
9699;DHT22;10089;47.876;8.346;2024-03-08T05:52:20;0.60;99.90
9699;DHT22;10089;47.876;8.346;2024-03-08T05:54:45;0.60;99.90
9699;DHT22;10089;47.876;8.346;2024-03-08T05:57:12;0.60;99.90
9699;DHT22;10089;47.876;8.346;2024-03-08T05:59:39;0.40;99.90
9699;DHT22;10089;47.876;8.346;2024-03-08T06:02:05;0.40;99.90
9699;DHT22;10089;47.876;8.346;2024-03-08T06:04:31;0.40;99.90
9699;DHT22;10089;47.876;8.346;2024-03-08T06:06:56;0.50;99.90
9699;DHT22;10089;47.876;8.346;2024-03-08T06:09:26;0.50;99.90
9699;DHT22;10089;47.876;8.346;2024-03-08T06:11:52;0.50;99.90
9699;DHT22;10089;47.876;8.346;2024-03-08T06:14:19;0.60;99.90
9699;DHT22;10089;47.876;8.346;2024-03-08T06:16:47;0.60;99.90
9699;DHT22;10089;47.876;8.346;2024-03-08T06:19:15;0.60;99.90
9699;DHT22;10089;47.876;8.346;2024-03-08T06:21:41;0.60;99.90
9699;DHT22;10089;47.876;8.346;2024-03-08T06:24:07;0.50;99.90
9699;DHT22;10089;47.876;8.346;2024-03-08T06:26:32;1.00;99.90
9699;DHT22;10089;47.876;8.346;2024-03-08T06:28:58;0.70;99.90
9699;DHT22;10089;47.876;8.346;2024-03-08T06:31:23;0.60;99.90
9699;DHT22;10089;47.876;8.346;2024-03-08T06:33:49;0.50;99.90
9699;DHT22;10089;47.876;8.346;2024-03-08T06:36:18;0.60;99.90
9699;DHT22;10089;47.876;8.346;2024-03-08T06:38:45;0.50;99.90
9699;DHT22;10089;47.876;8.346;2024-03-08T06:41:11;0.50;99.90
9699;DHT22;10089;47.876;8.346;2024-03-08T06:43:44;0.40;99.90
9699;DHT22;10089;47.876;8.346;2024-03-08T06:46:10;0.50;99.90
9699;DHT22;10089;47.876;8.346;2024-03-08T06:48:38;0.60;99.90
9699;DHT22;10089;47.876;8.346;2024-03-08T06:51:04;0.60;99.90
9699;DHT22;10089;47.876;8.346;2024-03-08T06:53:30;0.60;99.90
9699;DHT22;10089;47.876;8.346;2024-03-08T06:55:57;0.60;99.90
9699;DHT22;10089;47.876;8.346;2024-03-08T06:58:23;0.60;99.90
9699;DHT22;10089;47.876;8.346;2024-03-08T07:00:48;0.70;99.90
9699;DHT22;10089;47.876;8.346;2024-03-08T07:03:18;0.60;99.90
9699;DHT22;10089;47.876;8.346;2024-03-08T07:05:43;0.60;99.90
9699;DHT22;10089;47.876;8.346;2024-03-08T07:08:09;0.50;99.90
9699;DHT22;10089;47.876;8.346;2024-03-08T07:10:35;0.60;99.90
9699;DHT22;10089;47.876;8.346;2024-03-08T07:13:02;0.60;99.90
9699;DHT22;10089;47.876;8.346;2024-03-08T07:15:28;0.60;99.90
9699;DHT22;10089;47.876;8.346;2024-03-08T07:17:54;0.70;99.90
9699;DHT22;10089;47.876;8.346;2024-03-08T07:20:21;0.60;99.90
9699;DHT22;10089;47.876;8.346;2024-03-08T07:22:46;0.40;99.90
9699;DHT22;10089;47.876;8.346;2024-03-08T07:25:21;0.40;99.90
9699;DHT22;10089;47.876;8.346;2024-03-08T07:27:54;0.50;99.90
9699;DHT22;10089;47.876;8.346;2024-03-08T07:30:24;0.50;99.90
9699;DHT22;10089;47.876;8.346;2024-03-08T07:33:09;0.60;99.90
9699;DHT22;10089;47.876;8.346;2024-03-08T07:35:37;0.70;99.90
9699;DHT22;10089;47.876;8.346;2024-03-08T07:38:07;0.70;99.90
9699;DHT22;10089;47.876;8.346;2024-03-08T07:40:37;0.70;99.90
9699;DHT22;10089;47.876;8.346;2024-03-08T07:43:06;0.80;99.90
9699;DHT22;10089;47.876;8.346;2024-03-08T07:45:32;0.90;99.90
9699;DHT22;10089;47.876;8.346;2024-03-08T07:47:57;0.80;99.90
9699;DHT22;10089;47.876;8.346;2024-03-08T07:50:23;0.70;99.90
9699;DHT22;10089;47.876;8.346;2024-03-08T07:52:49;0.90;99.90
9699;DHT22;10089;47.876;8.346;2024-03-08T07:55:15;0.80;99.90
9699;DHT22;10089;47.876;8.346;2024-03-08T07:57:40;0.90;99.90
9699;DHT22;10089;47.876;8.346;2024-03-08T08:00:08;1.00;99.90
9699;DHT22;10089;47.876;8.346;2024-03-08T08:02:34;0.80;99.90
9699;DHT22;10089;47.876;8.346;2024-03-08T08:05:01;1.40;99.90
9699;DHT22;10089;47.876;8.346;2024-03-08T08:07:26;1.80;99.90
9699;DHT22;10089;47.876;8.346;2024-03-08T08:09:53;2.00;99.90
9699;DHT22;10089;47.876;8.346;2024-03-08T08:12:18;2.10;99.90
9699;DHT22;10089;47.876;8.346;2024-03-08T08:14:44;2.20;25.60
9699;DHT22;10089;47.876;8.346;2024-03-08T08:17:10;2.10;1.00
9699;DHT22;10089;47.876;8.346;2024-03-08T08:19:36;2.10;1.00
9699;DHT22;10089;47.876;8.346;2024-03-08T08:22:02;2.10;1.00
9699;DHT22;10089;47.876;8.346;2024-03-08T08:24:28;2.10;1.00
9699;DHT22;10089;47.876;8.346;2024-03-08T08:26:53;2.30;1.00
9699;DHT22;10089;47.876;8.346;2024-03-08T08:29:19;2.30;1.00
9699;DHT22;10089;47.876;8.346;2024-03-08T08:31:46;2.50;1.00
9699;DHT22;10089;47.876;8.346;2024-03-08T08:34:12;2.20;1.00
9699;DHT22;10089;47.876;8.346;2024-03-08T08:36:39;2.20;1.00
9699;DHT22;10089;47.876;8.346;2024-03-08T08:39:05;2.10;1.00
9699;DHT22;10089;47.876;8.346;2024-03-08T08:41:37;1.50;1.00
9699;DHT22;10089;47.876;8.346;2024-03-08T08:44:03;1.60;60.30
9699;DHT22;10089;47.876;8.346;2024-03-08T08:46:29;1.70;53.40
9699;DHT22;10089;47.876;8.346;2024-03-08T08:48:54;1.70;96.50
9699;DHT22;10089;47.876;8.346;2024-03-08T08:51:20;1.90;47.80
9699;DHT22;10089;47.876;8.346;2024-03-08T08:53:46;1.90;1.00
9699;DHT22;10089;47.876;8.346;2024-03-08T08:56:13;1.40;46.10
9699;DHT22;10089;47.876;8.346;2024-03-08T08:58:42;1.80;99.90
9699;DHT22;10089;47.876;8.346;2024-03-08T09:01:11;1.70;99.90
9699;DHT22;10089;47.876;8.346;2024-03-08T09:03:39;1.20;90.80
9699;DHT22;10089;47.876;8.346;2024-03-08T09:06:06;1.60;99.90
9699;DHT22;10089;47.876;8.346;2024-03-08T09:08:35;1.80;99.90
9699;DHT22;10089;47.876;8.346;2024-03-08T09:11:01;1.60;94.50
9699;DHT22;10089;47.876;8.346;2024-03-08T09:13:27;1.40;99.90
9699;DHT22;10089;47.876;8.346;2024-03-08T09:15:53;1.40;99.90
9699;DHT22;10089;47.876;8.346;2024-03-08T09:18:19;1.80;99.90
9699;DHT22;10089;47.876;8.346;2024-03-08T09:20:44;2.10;99.90
9699;DHT22;10089;47.876;8.346;2024-03-08T09:23:10;2.50;99.90
9699;DHT22;10089;47.876;8.346;2024-03-08T09:25:36;2.70;49.20
9699;DHT22;10089;47.876;8.346;2024-03-08T09:28:01;2.90;1.00
9699;DHT22;10089;47.876;8.346;2024-03-08T09:30:27;3.00;1.00
9699;DHT22;10089;47.876;8.346;2024-03-08T09:32:52;3.10;1.00
9699;DHT22;10089;47.876;8.346;2024-03-08T09:35:18;3.30;1.00
9699;DHT22;10089;47.876;8.346;2024-03-08T09:37:44;3.30;1.00
9699;DHT22;10089;47.876;8.346;2024-03-08T09:40:10;3.30;1.00
9699;DHT22;10089;47.876;8.346;2024-03-08T09:42:35;3.30;1.00
9699;DHT22;10089;47.876;8.346;2024-03-08T09:45:11;3.40;1.00
9699;DHT22;10089;47.876;8.346;2024-03-08T09:47:41;3.40;1.00
9699;DHT22;10089;47.876;8.346;2024-03-08T09:50:08;2.90;1.00
9699;DHT22;10089;47.876;8.346;2024-03-08T09:52:46;3.20;1.00
9699;DHT22;10089;47.876;8.346;2024-03-08T09:55:12;3.50;1.00
9699;DHT22;10089;47.876;8.346;2024-03-08T09:57:38;3.70;1.00
9699;DHT22;10089;47.876;8.346;2024-03-08T10:00:05;3.90;1.00
9699;DHT22;10089;47.876;8.346;2024-03-08T10:02:47;4.00;1.00
9699;DHT22;10089;47.876;8.346;2024-03-08T10:05:14;4.10;1.00
9699;DHT22;10089;47.876;8.346;2024-03-08T10:07:40;4.30;99.90
9699;DHT22;10089;47.876;8.346;2024-03-08T10:10:06;4.20;99.90
9699;DHT22;10089;47.876;8.346;2024-03-08T10:12:36;4.00;99.90
9699;DHT22;10089;47.876;8.346;2024-03-08T10:15:02;4.90;1.00
9699;DHT22;10089;47.876;8.346;2024-03-08T10:17:27;3.80;99.90
9699;DHT22;10089;47.876;8.346;2024-03-08T10:19:57;4.50;99.90
9699;DHT22;10089;47.876;8.346;2024-03-08T10:22:25;5.10;1.00
9699;DHT22;10089;47.876;8.346;2024-03-08T10:24:51;4.60;1.00
9699;DHT22;10089;47.876;8.346;2024-03-08T10:27:17;4.80;99.90
9699;DHT22;10089;47.876;8.346;2024-03-08T10:29:48;5.20;99.90
9699;DHT22;10089;47.876;8.346;2024-03-08T10:32:13;5.60;1.00
9699;DHT22;10089;47.876;8.346;2024-03-08T10:34:39;6.50;1.00
9699;DHT22;10089;47.876;8.346;2024-03-08T10:37:07;6.40;42.50
9699;DHT22;10089;47.876;8.346;2024-03-08T10:39:38;7.00;1.00
9699;DHT22;10089;47.876;8.346;2024-03-08T10:42:05;6.70;1.00
9699;DHT22;10089;47.876;8.346;2024-03-08T10:47:30;6.10;69.80
9699;DHT22;10089;47.876;8.346;2024-03-08T10:50:26;5.60;1.00
9699;DHT22;10089;47.876;8.346;2024-03-08T10:52:53;6.40;1.00
9699;DHT22;10089;47.876;8.346;2024-03-08T10:55:19;6.50;1.00
9699;DHT22;10089;47.876;8.346;2024-03-08T10:57:46;7.00;99.90
9699;DHT22;10089;47.876;8.346;2024-03-08T11:00:14;8.60;1.00
9699;DHT22;10089;47.876;8.346;2024-03-08T11:02:44;8.20;99.90
9699;DHT22;10089;47.876;8.346;2024-03-08T11:08:05;8.60;1.00
9699;DHT22;10089;47.876;8.346;2024-03-08T11:10:54;8.50;1.00
9699;DHT22;10089;47.876;8.346;2024-03-08T11:13:37;8.10;1.00
9699;DHT22;10089;47.876;8.346;2024-03-08T11:16:07;8.30;1.00
9699;DHT22;10089;47.876;8.346;2024-03-08T11:18:35;8.70;99.90
9699;DHT22;10089;47.876;8.346;2024-03-08T11:21:10;8.90;99.90
9699;DHT22;10089;47.876;8.346;2024-03-08T11:23:38;8.40;99.90
9699;DHT22;10089;47.876;8.346;2024-03-08T11:26:20;8.50;25.40
9699;DHT22;10089;47.876;8.346;2024-03-08T11:28:46;9.00;99.90
9699;DHT22;10089;47.876;8.346;2024-03-08T11:33:40;8.20;1.00
9699;DHT22;10089;47.876;8.346;2024-03-08T11:36:24;8.20;1.00
9699;DHT22;10089;47.876;8.346;2024-03-08T11:38:51;8.60;1.00
9699;DHT22;10089;47.876;8.346;2024-03-08T11:41:24;8.30;99.90
9699;DHT22;10089;47.876;8.346;2024-03-08T11:44:03;8.50;1.00
9699;DHT22;10089;47.876;8.346;2024-03-08T11:46:32;8.90;36.90
9699;DHT22;10089;47.876;8.346;2024-03-08T11:49:00;8.50;1.00
9699;DHT22;10089;47.876;8.346;2024-03-08T11:51:27;8.70;1.00
9699;DHT22;10089;47.876;8.346;2024-03-08T11:53:53;8.80;1.00
9699;DHT22;10089;47.876;8.346;2024-03-08T11:56:18;9.10;1.00
9699;DHT22;10089;47.876;8.346;2024-03-08T11:58:54;9.30;1.00
9699;DHT22;10089;47.876;8.346;2024-03-08T12:01:22;9.50;26.20
9699;DHT22;10089;47.876;8.346;2024-03-08T12:03:58;9.40;1.00
9699;DHT22;10089;47.876;8.346;2024-03-08T12:06:25;8.30;1.00
9699;DHT22;10089;47.876;8.346;2024-03-08T12:08:51;8.90;1.00
9699;DHT22;10089;47.876;8.346;2024-03-08T12:11:17;8.90;99.90
9699;DHT22;10089;47.876;8.346;2024-03-08T12:13:48;9.40;99.90
9699;DHT22;10089;47.876;8.346;2024-03-08T12:16:19;10.00;1.00
9699;DHT22;10089;47.876;8.346;2024-03-08T12:18:47;9.80;99.90
9699;DHT22;10089;47.876;8.346;2024-03-08T12:21:14;9.40;99.90
9699;DHT22;10089;47.876;8.346;2024-03-08T12:23:43;8.60;1.00
9699;DHT22;10089;47.876;8.346;2024-03-08T12:26:17;9.50;99.90
9699;DHT22;10089;47.876;8.346;2024-03-08T12:28:45;9.90;1.00
9699;DHT22;10089;47.876;8.346;2024-03-08T12:31:17;9.50;99.90
9699;DHT22;10089;47.876;8.346;2024-03-08T12:36:15;9.10;99.90
9699;DHT22;10089;47.876;8.346;2024-03-08T12:38:48;9.10;99.90
9699;DHT22;10089;47.876;8.346;2024-03-08T12:41:14;9.60;1.00
9699;DHT22;10089;47.876;8.346;2024-03-08T12:43:40;9.10;95.60
9699;DHT22;10089;47.876;8.346;2024-03-08T12:46:06;9.30;1.00
9699;DHT22;10089;47.876;8.346;2024-03-08T12:48:34;9.70;1.00
9699;DHT22;10089;47.876;8.346;2024-03-08T12:51:01;9.30;99.90
9699;DHT22;10089;47.876;8.346;2024-03-08T12:53:26;9.60;99.90
9699;DHT22;10089;47.876;8.346;2024-03-08T12:55:54;9.80;99.90
9699;DHT22;10089;47.876;8.346;2024-03-08T12:58:22;9.80;99.90
9699;DHT22;10089;47.876;8.346;2024-03-08T13:00:47;10.10;99.90
9699;DHT22;10089;47.876;8.346;2024-03-08T13:03:13;9.40;1.00
9699;DHT22;10089;47.876;8.346;2024-03-08T13:05:39;9.40;1.00
9699;DHT22;10089;47.876;8.346;2024-03-08T13:08:06;9.90;1.00
9699;DHT22;10089;47.876;8.346;2024-03-08T13:10:38;9.30;1.00
9699;DHT22;10089;47.876;8.346;2024-03-08T13:13:03;9.60;99.90
9699;DHT22;10089;47.876;8.346;2024-03-08T13:15:30;9.00;99.90
9699;DHT22;10089;47.876;8.346;2024-03-08T13:17:56;9.30;1.00
9699;DHT22;10089;47.876;8.346;2024-03-08T13:20:25;9.30;99.90
9699;DHT22;10089;47.876;8.346;2024-03-08T13:22:53;8.90;99.90
9699;DHT22;10089;47.876;8.346;2024-03-08T13:25:19;8.70;1.00
9699;DHT22;10089;47.876;8.346;2024-03-08T13:27:45;8.90;1.00
9699;DHT22;10089;47.876;8.346;2024-03-08T13:30:12;9.10;1.00
9699;DHT22;10089;47.876;8.346;2024-03-08T13:32:41;9.20;99.90
9699;DHT22;10089;47.876;8.346;2024-03-08T13:35:11;9.00;1.00
9699;DHT22;10089;47.876;8.346;2024-03-08T13:37:41;9.30;99.90
9699;DHT22;10089;47.876;8.346;2024-03-08T13:40:08;9.40;1.00
9699;DHT22;10089;47.876;8.346;2024-03-08T13:42:40;9.20;99.90
9699;DHT22;10089;47.876;8.346;2024-03-08T13:45:08;9.30;99.90
9699;DHT22;10089;47.876;8.346;2024-03-08T13:47:36;9.20;99.90
9699;DHT22;10089;47.876;8.346;2024-03-08T13:50:02;9.40;99.90
9699;DHT22;10089;47.876;8.346;2024-03-08T13:52:29;9.20;1.00
9699;DHT22;10089;47.876;8.346;2024-03-08T13:54:55;9.20;1.00
9699;DHT22;10089;47.876;8.346;2024-03-08T13:57:21;9.10;99.90
9699;DHT22;10089;47.876;8.346;2024-03-08T13:59:48;9.20;1.00
9699;DHT22;10089;47.876;8.346;2024-03-08T14:02:16;9.20;1.00
9699;DHT22;10089;47.876;8.346;2024-03-08T14:04:42;9.00;99.90
9699;DHT22;10089;47.876;8.346;2024-03-08T14:07:08;8.90;99.90
9699;DHT22;10089;47.876;8.346;2024-03-08T14:09:34;8.70;1.00
9699;DHT22;10089;47.876;8.346;2024-03-08T14:12:03;8.80;99.90
9699;DHT22;10089;47.876;8.346;2024-03-08T14:14:33;8.90;1.00
9699;DHT22;10089;47.876;8.346;2024-03-08T14:17:00;8.70;1.00
9699;DHT22;10089;47.876;8.346;2024-03-08T14:19:27;8.60;42.60
9699;DHT22;10089;47.876;8.346;2024-03-08T14:21:53;8.40;1.00
9699;DHT22;10089;47.876;8.346;2024-03-08T14:24:19;8.20;99.90
9699;DHT22;10089;47.876;8.346;2024-03-08T14:26:45;8.20;99.90
9699;DHT22;10089;47.876;8.346;2024-03-08T14:29:12;8.20;99.90
9699;DHT22;10089;47.876;8.346;2024-03-08T14:31:38;8.20;99.90
9699;DHT22;10089;47.876;8.346;2024-03-08T14:34:04;7.90;1.00
9699;DHT22;10089;47.876;8.346;2024-03-08T14:36:30;7.90;1.00
9699;DHT22;10089;47.876;8.346;2024-03-08T14:38:55;7.90;1.00
9699;DHT22;10089;47.876;8.346;2024-03-08T14:41:21;7.80;1.00
9699;DHT22;10089;47.876;8.346;2024-03-08T14:43:48;7.70;1.00
9699;DHT22;10089;47.876;8.346;2024-03-08T14:46:14;7.70;1.00
9699;DHT22;10089;47.876;8.346;2024-03-08T14:48:52;7.70;1.00
9699;DHT22;10089;47.876;8.346;2024-03-08T14:51:19;7.60;99.90
9699;DHT22;10089;47.876;8.346;2024-03-08T14:53:47;7.50;1.00
9699;DHT22;10089;47.876;8.346;2024-03-08T14:56:13;7.50;99.90
9699;DHT22;10089;47.876;8.346;2024-03-08T14:58:43;7.60;99.90
9699;DHT22;10089;47.876;8.346;2024-03-08T15:01:10;7.30;1.00
9699;DHT22;10089;47.876;8.346;2024-03-08T15:03:36;7.30;1.00
9699;DHT22;10089;47.876;8.346;2024-03-08T15:06:03;7.20;1.00
9699;DHT22;10089;47.876;8.346;2024-03-08T15:08:34;7.20;99.90
9699;DHT22;10089;47.876;8.346;2024-03-08T15:11:00;7.10;99.90
9699;DHT22;10089;47.876;8.346;2024-03-08T15:13:25;6.90;1.00
9699;DHT22;10089;47.876;8.346;2024-03-08T15:15:59;6.80;1.00
9699;DHT22;10089;47.876;8.346;2024-03-08T15:18:25;6.90;1.00
9699;DHT22;10089;47.876;8.346;2024-03-08T15:20:54;6.90;1.00
9699;DHT22;10089;47.876;8.346;2024-03-08T15:23:20;6.90;99.90
9699;DHT22;10089;47.876;8.346;2024-03-08T15:25:47;6.90;42.00
9699;DHT22;10089;47.876;8.346;2024-03-08T15:28:15;6.90;1.00
9699;DHT22;10089;47.876;8.346;2024-03-08T15:30:43;7.00;1.00
9699;DHT22;10089;47.876;8.346;2024-03-08T15:33:12;7.10;1.00
9699;DHT22;10089;47.876;8.346;2024-03-08T15:35:41;7.10;99.90
9699;DHT22;10089;47.876;8.346;2024-03-08T15:38:06;7.10;99.90
9699;DHT22;10089;47.876;8.346;2024-03-08T15:40:33;7.20;99.90
9699;DHT22;10089;47.876;8.346;2024-03-08T15:43:00;7.10;1.00
9699;DHT22;10089;47.876;8.346;2024-03-08T15:45:26;7.00;1.00
9699;DHT22;10089;47.876;8.346;2024-03-08T15:47:57;6.90;1.00
9699;DHT22;10089;47.876;8.346;2024-03-08T15:50:23;6.80;99.90
9699;DHT22;10089;47.876;8.346;2024-03-08T15:52:49;6.80;99.90
9699;DHT22;10089;47.876;8.346;2024-03-08T15:55:19;6.80;1.00
9699;DHT22;10089;47.876;8.346;2024-03-08T15:57:48;6.90;99.90
9699;DHT22;10089;47.876;8.346;2024-03-08T16:00:18;6.80;1.00
9699;DHT22;10089;47.876;8.346;2024-03-08T16:03:05;6.60;1.00
9699;DHT22;10089;47.876;8.346;2024-03-08T16:05:44;6.70;1.00
9699;DHT22;10089;47.876;8.346;2024-03-08T16:08:10;6.80;1.00
9699;DHT22;10089;47.876;8.346;2024-03-08T16:10:44;6.60;7.40
9699;DHT22;10089;47.876;8.346;2024-03-08T16:13:19;6.70;99.90
9699;DHT22;10089;47.876;8.346;2024-03-08T16:15:47;6.50;1.00
9699;DHT22;10089;47.876;8.346;2024-03-08T16:18:13;6.50;99.90
9699;DHT22;10089;47.876;8.346;2024-03-08T16:20:41;6.50;99.90
9699;DHT22;10089;47.876;8.346;2024-03-08T16:23:09;6.40;1.00
9699;DHT22;10089;47.876;8.346;2024-03-08T16:25:36;6.30;99.90
9699;DHT22;10089;47.876;8.346;2024-03-08T16:28:02;6.20;1.00
9699;DHT22;10089;47.876;8.346;2024-03-08T16:30:29;6.20;1.00
9699;DHT22;10089;47.876;8.346;2024-03-08T16:32:58;6.10;26.00
9699;DHT22;10089;47.876;8.346;2024-03-08T16:35:24;5.90;99.90
9699;DHT22;10089;47.876;8.346;2024-03-08T16:37:50;5.80;99.90
9699;DHT22;10089;47.876;8.346;2024-03-08T16:40:17;5.70;1.00
9699;DHT22;10089;47.876;8.346;2024-03-08T16:42:45;5.60;1.00
9699;DHT22;10089;47.876;8.346;2024-03-08T16:45:14;5.50;95.80
9699;DHT22;10089;47.876;8.346;2024-03-08T16:47:40;5.40;99.90
9699;DHT22;10089;47.876;8.346;2024-03-08T16:50:06;5.40;1.00
9699;DHT22;10089;47.876;8.346;2024-03-08T16:52:36;5.20;1.00
9699;DHT22;10089;47.876;8.346;2024-03-08T16:55:03;5.20;99.90
9699;DHT22;10089;47.876;8.346;2024-03-08T16:57:34;5.10;99.90
9699;DHT22;10089;47.876;8.346;2024-03-08T17:00:01;5.10;99.90
9699;DHT22;10089;47.876;8.346;2024-03-08T17:02:35;5.10;1.00
9699;DHT22;10089;47.876;8.346;2024-03-08T17:05:03;5.00;99.90
9699;DHT22;10089;47.876;8.346;2024-03-08T17:07:32;5.00;1.00
9699;DHT22;10089;47.876;8.346;2024-03-08T17:09:59;4.90;99.90
9699;DHT22;10089;47.876;8.346;2024-03-08T17:12:28;4.80;1.00
9699;DHT22;10089;47.876;8.346;2024-03-08T17:14:54;4.90;1.00
9699;DHT22;10089;47.876;8.346;2024-03-08T17:17:19;4.90;1.00
9699;DHT22;10089;47.876;8.346;2024-03-08T17:19:46;4.70;1.00
9699;DHT22;10089;47.876;8.346;2024-03-08T17:22:11;4.60;1.00
9699;DHT22;10089;47.876;8.346;2024-03-08T17:24:37;4.60;1.00
9699;DHT22;10089;47.876;8.346;2024-03-08T17:27:04;4.60;1.00
9699;DHT22;10089;47.876;8.346;2024-03-08T17:29:32;4.60;1.00
9699;DHT22;10089;47.876;8.346;2024-03-08T17:31:58;4.60;1.00
9699;DHT22;10089;47.876;8.346;2024-03-08T17:34:23;4.60;4.60
9699;DHT22;10089;47.876;8.346;2024-03-08T17:36:53;4.40;47.60
9699;DHT22;10089;47.876;8.346;2024-03-08T17:39:23;4.30;99.90
9699;DHT22;10089;47.876;8.346;2024-03-08T17:41:51;4.30;99.90
9699;DHT22;10089;47.876;8.346;2024-03-08T17:44:19;4.20;99.90
9699;DHT22;10089;47.876;8.346;2024-03-08T17:46:46;4.10;99.90
9699;DHT22;10089;47.876;8.346;2024-03-08T17:49:13;4.10;99.90
9699;DHT22;10089;47.876;8.346;2024-03-08T17:51:40;4.00;99.90
9699;DHT22;10089;47.876;8.346;2024-03-08T17:54:06;4.00;99.90
9699;DHT22;10089;47.876;8.346;2024-03-08T17:56:43;3.90;99.90